MSR20 HECA-HESH
Flight info
| Callsign | MSR20 |
|---|---|
| Flight time | 0h 37m |
| Altitude | 27000 |
| Route | CVO L677 MENLI N697 SISIK V603 DASOT DCT SHM |
| Aircraft | A20N/M-SDE2E3FGHIRWXY/LB1 |
Departure
| Time | 2026-05-05 15:41 |
|---|---|
| Airport | Cairo International Airport (HECA) |
Arrival
| Time | 2026-05-05 16:19 |
|---|---|
| Airport | Sharm El Sheikh International Airport (HESH) |
| Time | Latitude | Longitude | Altitude | Speed | Heading |
|---|---|---|---|---|---|
| 2026-05-05 15:10 | 30.10717 | 31.39572 | 343 ft | 0 kts | 75° |
| 2026-05-05 15:30 | 30.10713 | 31.39552 | 375 ft | 4 kts | 75° |
| 2026-05-05 15:30 | 30.10706 | 31.39522 | 375 ft | 4 kts | 75° |
| 2026-05-05 15:30 | 30.10699 | 31.39494 | 375 ft | 3 kts | 77° |
| 2026-05-05 15:30 | 30.10696 | 31.39470 | 375 ft | 2 kts | 108° |
| 2026-05-05 15:31 | 30.10704 | 31.39456 | 375 ft | 2 kts | 152° |
| 2026-05-05 15:31 | 30.10710 | 31.39453 | 375 ft | 0 kts | 147° |
| 2026-05-05 15:33 | 30.10707 | 31.39454 | 374 ft | 1 kts | 153° |
| 2026-05-05 15:33 | 30.10700 | 31.39457 | 374 ft | 2 kts | 158° |
| 2026-05-05 15:34 | 30.10690 | 31.39461 | 374 ft | 1 kts | 161° |
| 2026-05-05 15:34 | 30.10675 | 31.39466 | 374 ft | 4 kts | 164° |
| 2026-05-05 15:34 | 30.10641 | 31.39479 | 374 ft | 5 kts | 154° |
| 2026-05-05 15:34 | 30.10619 | 31.39501 | 374 ft | 4 kts | 130° |
| 2026-05-05 15:35 | 30.10610 | 31.39525 | 374 ft | 3 kts | 107° |
| 2026-05-05 15:35 | 30.10609 | 31.39543 | 374 ft | 3 kts | 87° |
| 2026-05-05 15:35 | 30.10617 | 31.39589 | 374 ft | 9 kts | 76° |
| 2026-05-05 15:35 | 30.10635 | 31.39668 | 374 ft | 10 kts | 75° |
| 2026-05-05 15:36 | 30.10653 | 31.39741 | 374 ft | 9 kts | 75° |
| 2026-05-05 15:36 | 30.10649 | 31.39804 | 374 ft | 7 kts | 120° |
| 2026-05-05 15:36 | 30.10608 | 31.39833 | 374 ft | 7 kts | 160° |
| 2026-05-05 15:36 | 30.10560 | 31.39849 | 374 ft | 9 kts | 166° |
| 2026-05-05 15:37 | 30.10477 | 31.39873 | 374 ft | 15 kts | 171° |
| 2026-05-05 15:37 | 30.10389 | 31.39828 | 374 ft | 14 kts | 227° |
| 2026-05-05 15:37 | 30.10326 | 31.39748 | 374 ft | 14 kts | 227° |
| 2026-05-05 15:37 | 30.10232 | 31.39631 | 374 ft | 21 kts | 224° |
| 2026-05-05 15:38 | 30.10168 | 31.39577 | 374 ft | 12 kts | 178° |
| 2026-05-05 15:38 | 30.10085 | 31.39637 | 374 ft | 10 kts | 140° |
| 2026-05-05 15:38 | 30.10036 | 31.39686 | 374 ft | 2 kts | 137° |
| 2026-05-05 15:39 | 30.10033 | 31.39690 | 374 ft | 1 kts | 137° |
| 2026-05-05 15:39 | 30.10023 | 31.39703 | 374 ft | 6 kts | 127° |
| 2026-05-05 15:40 | 30.10004 | 31.39784 | 374 ft | 14 kts | 92° |
| 2026-05-05 15:40 | 30.10016 | 31.39889 | 374 ft | 12 kts | 72° |
| 2026-05-05 15:40 | 30.10027 | 31.39909 | 374 ft | 0 kts | 49° |
| 2026-05-05 15:40 | 30.10075 | 31.39977 | 374 ft | 32 kts | 47° |
| 2026-05-05 15:41 | 30.10244 | 31.40191 | 374 ft | 83 kts | 49° |
| 2026-05-05 15:41 | 30.10809 | 31.40936 | 375 ft | 159 kts | 48° |
| 2026-05-05 15:41 | 30.11623 | 31.42020 | 699 ft | 188 kts | 47° |
| 2026-05-05 15:41 | 30.12530 | 31.43164 | 1478 ft | 198 kts | 45° |
| 2026-05-05 15:42 | 30.13295 | 31.44568 | 2352 ft | 209 kts | 62° |
| 2026-05-05 15:42 | 30.13700 | 31.46188 | 3156 ft | 212 kts | 78° |
| 2026-05-05 15:42 | 30.13706 | 31.47897 | 3880 ft | 218 kts | 95° |
| 2026-05-05 15:42 | 30.13275 | 31.49636 | 4497 ft | 234 kts | 120° |
| 2026-05-05 15:43 | 30.12057 | 31.50904 | 5137 ft | 245 kts | 156° |
| 2026-05-05 15:43 | 30.10405 | 31.51714 | 5738 ft | 262 kts | 158° |
| 2026-05-05 15:43 | 30.08666 | 31.52548 | 6353 ft | 280 kts | 159° |
| 2026-05-05 15:43 | 30.06825 | 31.53427 | 7056 ft | 290 kts | 158° |
| 2026-05-05 15:44 | 30.04943 | 31.54325 | 7953 ft | 294 kts | 159° |
| 2026-05-05 15:44 | 30.03123 | 31.55433 | 8848 ft | 299 kts | 148° |
| 2026-05-05 15:44 | 30.01417 | 31.56846 | 9726 ft | 305 kts | 143° |
| 2026-05-05 15:44 | 29.99730 | 31.58440 | 10439 ft | 316 kts | 141° |
| 2026-05-05 15:45 | 29.98032 | 31.60107 | 10895 ft | 333 kts | 141° |
| 2026-05-05 15:45 | 29.96215 | 31.61880 | 11334 ft | 350 kts | 142° |
| 2026-05-05 15:45 | 29.94292 | 31.63719 | 11799 ft | 365 kts | 142° |
| 2026-05-05 15:45 | 29.92310 | 31.65605 | 12469 ft | 373 kts | 140° |
| 2026-05-05 15:46 | 29.90530 | 31.67817 | 13197 ft | 381 kts | 129° |
| 2026-05-05 15:46 | 29.88940 | 31.70295 | 13871 ft | 388 kts | 128° |
| 2026-05-05 15:46 | 29.87305 | 31.72850 | 14478 ft | 394 kts | 128° |
| 2026-05-05 15:46 | 29.85664 | 31.75408 | 15109 ft | 399 kts | 128° |
| 2026-05-05 15:47 | 29.84007 | 31.77991 | 15746 ft | 403 kts | 128° |
| 2026-05-05 15:47 | 29.82343 | 31.80581 | 16377 ft | 408 kts | 129° |
| 2026-05-05 15:47 | 29.80641 | 31.83227 | 16994 ft | 412 kts | 129° |
| 2026-05-05 15:47 | 29.79039 | 31.86027 | 17614 ft | 419 kts | 120° |
| 2026-05-05 15:48 | 29.77862 | 31.89117 | 18232 ft | 425 kts | 109° |
| 2026-05-05 15:48 | 29.77086 | 31.92426 | 18767 ft | 430 kts | 104° |
| 2026-05-05 15:48 | 29.76357 | 31.95779 | 19290 ft | 435 kts | 104° |
| 2026-05-05 15:48 | 29.75609 | 31.99174 | 19817 ft | 439 kts | 105° |
| 2026-05-05 15:49 | 29.74849 | 32.02593 | 20335 ft | 444 kts | 105° |
| 2026-05-05 15:49 | 29.74076 | 32.06051 | 20866 ft | 448 kts | 105° |
| 2026-05-05 15:49 | 29.73294 | 32.09541 | 21385 ft | 453 kts | 105° |
| 2026-05-05 15:49 | 29.72513 | 32.13028 | 21897 ft | 457 kts | 105° |
| 2026-05-05 15:50 | 29.71716 | 32.16584 | 22415 ft | 461 kts | 105° |
| 2026-05-05 15:50 | 29.70910 | 32.20180 | 22893 ft | 466 kts | 105° |
| 2026-05-05 15:50 | 29.70095 | 32.23820 | 23372 ft | 470 kts | 105° |
| 2026-05-05 15:50 | 29.69275 | 32.27488 | 23809 ft | 474 kts | 105° |
| 2026-05-05 15:51 | 29.68449 | 32.31175 | 24222 ft | 477 kts | 106° |
| 2026-05-05 15:51 | 29.67614 | 32.34888 | 24645 ft | 480 kts | 106° |
| 2026-05-05 15:51 | 29.66776 | 32.38606 | 25065 ft | 482 kts | 106° |
| 2026-05-05 15:51 | 29.65931 | 32.42346 | 25478 ft | 484 kts | 106° |
| 2026-05-05 15:52 | 29.65085 | 32.46102 | 25876 ft | 486 kts | 106° |
| 2026-05-05 15:52 | 29.64233 | 32.49877 | 26262 ft | 488 kts | 106° |
| 2026-05-05 15:52 | 29.63362 | 32.53709 | 26656 ft | 490 kts | 106° |
| 2026-05-05 15:52 | 29.62498 | 32.57506 | 26956 ft | 492 kts | 106° |
| 2026-05-05 15:53 | 29.61624 | 32.61350 | 27017 ft | 483 kts | 106° |
| 2026-05-05 15:53 | 29.60749 | 32.65043 | 27026 ft | 478 kts | 110° |
| 2026-05-05 15:53 | 29.59499 | 32.68573 | 27033 ft | 474 kts | 120° |
| 2026-05-05 15:53 | 29.57827 | 32.71802 | 27027 ft | 469 kts | 130° |
| 2026-05-05 15:54 | 29.55870 | 32.74789 | 27025 ft | 468 kts | 132° |
| 2026-05-05 15:54 | 29.53878 | 32.77808 | 27038 ft | 468 kts | 132° |
| 2026-05-05 15:54 | 29.52070 | 32.80561 | 27027 ft | 468 kts | 131° |
| 2026-05-05 15:54 | 29.50134 | 32.83514 | 27032 ft | 468 kts | 131° |
| 2026-05-05 15:55 | 29.48149 | 32.86543 | 27027 ft | 467 kts | 131° |
| 2026-05-05 15:55 | 29.46197 | 32.89517 | 27043 ft | 467 kts | 132° |
| 2026-05-05 15:55 | 29.44208 | 32.92541 | 27043 ft | 467 kts | 132° |
| 2026-05-05 15:55 | 29.42251 | 32.95514 | 27043 ft | 467 kts | 132° |
| 2026-05-05 15:56 | 29.40293 | 32.98482 | 27044 ft | 467 kts | 132° |
| 2026-05-05 15:56 | 29.38329 | 33.01456 | 27049 ft | 466 kts | 132° |
| 2026-05-05 15:56 | 29.36367 | 33.04420 | 27047 ft | 466 kts | 132° |
| 2026-05-05 15:56 | 29.34379 | 33.07422 | 27048 ft | 466 kts | 132° |
| 2026-05-05 15:57 | 29.32414 | 33.10391 | 27048 ft | 466 kts | 132° |
| 2026-05-05 15:57 | 29.30455 | 33.13346 | 27049 ft | 466 kts | 132° |
| 2026-05-05 15:57 | 29.28557 | 33.16211 | 27047 ft | 466 kts | 132° |
| 2026-05-05 15:57 | 29.26540 | 33.19252 | 27052 ft | 466 kts | 132° |
| 2026-05-05 15:58 | 29.24576 | 33.22212 | 27049 ft | 466 kts | 132° |
| 2026-05-05 15:58 | 29.22614 | 33.25167 | 27048 ft | 466 kts | 132° |
| 2026-05-05 15:58 | 29.20653 | 33.28117 | 27049 ft | 465 kts | 132° |
| 2026-05-05 15:58 | 29.18690 | 33.31069 | 27049 ft | 465 kts | 132° |
| 2026-05-05 15:59 | 29.16734 | 33.34018 | 27048 ft | 465 kts | 132° |
| 2026-05-05 15:59 | 29.14774 | 33.36966 | 27049 ft | 465 kts | 132° |
| 2026-05-05 15:59 | 29.12813 | 33.39905 | 27046 ft | 465 kts | 132° |
| 2026-05-05 15:59 | 29.10789 | 33.42936 | 27047 ft | 464 kts | 132° |
| 2026-05-05 16:00 | 29.08830 | 33.45874 | 27046 ft | 464 kts | 132° |
| 2026-05-05 16:00 | 29.07535 | 33.47817 | 27044 ft | 464 kts | 132° |
| 2026-05-05 16:00 | 29.05575 | 33.50761 | 27043 ft | 464 kts | 132° |
| 2026-05-05 16:00 | 29.03616 | 33.53694 | 27042 ft | 464 kts | 132° |
| 2026-05-05 16:01 | 29.01623 | 33.56666 | 27045 ft | 464 kts | 133° |
| 2026-05-05 16:01 | 28.99660 | 33.59591 | 26937 ft | 464 kts | 132° |
| 2026-05-05 16:01 | 28.97700 | 33.62515 | 26691 ft | 462 kts | 132° |
| 2026-05-05 16:01 | 28.95751 | 33.65423 | 26439 ft | 460 kts | 132° |
| 2026-05-05 16:02 | 28.93813 | 33.68314 | 26193 ft | 459 kts | 132° |
| 2026-05-05 16:02 | 28.91861 | 33.71224 | 25938 ft | 457 kts | 132° |
| 2026-05-05 16:02 | 28.89936 | 33.74092 | 25594 ft | 453 kts | 132° |
| 2026-05-05 16:02 | 28.88186 | 33.76702 | 25047 ft | 452 kts | 132° |
| 2026-05-05 16:03 | 28.86280 | 33.79547 | 24442 ft | 450 kts | 132° |
| 2026-05-05 16:03 | 28.84356 | 33.82407 | 23912 ft | 446 kts | 133° |
| 2026-05-05 16:03 | 28.82469 | 33.85199 | 23347 ft | 444 kts | 132° |
| 2026-05-05 16:03 | 28.80591 | 33.87978 | 22826 ft | 439 kts | 132° |
| 2026-05-05 16:04 | 28.78766 | 33.90685 | 22338 ft | 435 kts | 132° |
| 2026-05-05 16:04 | 28.76907 | 33.93453 | 21822 ft | 431 kts | 132° |
| 2026-05-05 16:04 | 28.75094 | 33.96151 | 21344 ft | 427 kts | 132° |
| 2026-05-05 16:04 | 28.73295 | 33.98826 | 20838 ft | 424 kts | 132° |
| 2026-05-05 16:05 | 28.71492 | 34.01465 | 20344 ft | 419 kts | 135° |
| 2026-05-05 16:05 | 28.69417 | 34.03746 | 19824 ft | 409 kts | 148° |
| 2026-05-05 16:05 | 28.67061 | 34.05470 | 19325 ft | 398 kts | 160° |
| 2026-05-05 16:05 | 28.64528 | 34.06633 | 18813 ft | 387 kts | 171° |
| 2026-05-05 16:06 | 28.61928 | 34.07262 | 18309 ft | 379 kts | 178° |
| 2026-05-05 16:06 | 28.59337 | 34.07758 | 17764 ft | 377 kts | 177° |
| 2026-05-05 16:06 | 28.56758 | 34.08258 | 17290 ft | 374 kts | 177° |
| 2026-05-05 16:06 | 28.54191 | 34.08759 | 16805 ft | 370 kts | 177° |
| 2026-05-05 16:07 | 28.51669 | 34.09251 | 16326 ft | 367 kts | 176° |
| 2026-05-05 16:07 | 28.49160 | 34.09740 | 15854 ft | 364 kts | 176° |
| 2026-05-05 16:07 | 28.46668 | 34.10225 | 15390 ft | 362 kts | 176° |
| 2026-05-05 16:07 | 28.44191 | 34.10704 | 14922 ft | 361 kts | 176° |
| 2026-05-05 16:08 | 28.41718 | 34.11179 | 14456 ft | 359 kts | 176° |
| 2026-05-05 16:08 | 28.39259 | 34.11652 | 13988 ft | 358 kts | 176° |
| 2026-05-05 16:08 | 28.36808 | 34.12124 | 13482 ft | 357 kts | 176° |
| 2026-05-05 16:08 | 28.34330 | 34.12603 | 12985 ft | 354 kts | 176° |
| 2026-05-05 16:09 | 28.31909 | 34.13073 | 12504 ft | 352 kts | 175° |
| 2026-05-05 16:09 | 28.29517 | 34.13539 | 12023 ft | 346 kts | 175° |
| 2026-05-05 16:09 | 28.27145 | 34.13999 | 11531 ft | 345 kts | 175° |
| 2026-05-05 16:09 | 28.24790 | 34.14452 | 11057 ft | 342 kts | 175° |
| 2026-05-05 16:10 | 28.22460 | 34.14900 | 10566 ft | 338 kts | 175° |
| 2026-05-05 16:10 | 28.20148 | 34.15344 | 10238 ft | 332 kts | 175° |
| 2026-05-05 16:10 | 28.17917 | 34.15777 | 10116 ft | 319 kts | 175° |
| 2026-05-05 16:10 | 28.15780 | 34.16194 | 9925 ft | 304 kts | 175° |
| 2026-05-05 16:11 | 28.13695 | 34.16595 | 9592 ft | 306 kts | 175° |
| 2026-05-05 16:11 | 28.07510 | 34.17773 | 8204 ft | 298 kts | 173° |
| 2026-05-05 16:12 | 28.05478 | 34.18165 | 7798 ft | 295 kts | 173° |
| 2026-05-05 16:12 | 28.01414 | 34.18945 | 6948 ft | 292 kts | 172° |
| 2026-05-05 16:13 | 27.95408 | 34.20096 | 5586 ft | 289 kts | 171° |
| 2026-05-05 16:13 | 27.93422 | 34.20478 | 5045 ft | 292 kts | 170° |
| 2026-05-05 16:13 | 27.91400 | 34.20866 | 4505 ft | 294 kts | 170° |
| 2026-05-05 16:14 | 27.87551 | 34.21610 | 4182 ft | 266 kts | 167° |
| 2026-05-05 16:14 | 27.85209 | 34.24089 | 3945 ft | 227 kts | 93° |
| 2026-05-05 16:15 | 27.86308 | 34.27205 | 3133 ft | 216 kts | 46° |
| 2026-05-05 16:15 | 27.88444 | 34.29507 | 2364 ft | 202 kts | 41° |
| 2026-05-05 16:16 | 27.90328 | 34.31467 | 1870 ft | 168 kts | 41° |
| 2026-05-05 16:16 | 27.91900 | 34.33106 | 1458 ft | 139 kts | 39° |
| 2026-05-05 16:17 | 27.93082 | 34.34334 | 1166 ft | 135 kts | 41° |
| 2026-05-05 16:17 | 27.93794 | 34.35076 | 990 ft | 136 kts | 41° |
| 2026-05-05 16:18 | 27.95181 | 34.36522 | 627 ft | 133 kts | 38° |
| 2026-05-05 16:18 | 27.95869 | 34.37238 | 451 ft | 134 kts | 41° |
| 2026-05-05 16:18 | 27.97212 | 34.38644 | 176 ft | 115 kts | 43° |
| 2026-05-05 16:19 | 27.97578 | 34.39030 | 173 ft | 25 kts | 38° |
| 2026-05-05 16:19 | 27.97613 | 34.39061 | 172 ft | 4 kts | 39° |
| 2026-05-05 16:19 | 27.97676 | 34.39120 | 172 ft | 11 kts | 38° |
| 2026-05-05 16:20 | 27.97807 | 34.39063 | 174 ft | 15 kts | 308° |
| 2026-05-05 16:20 | 27.97953 | 34.38887 | 172 ft | 12 kts | 314° |
| 2026-05-05 16:21 | 27.97969 | 34.38801 | 172 ft | 4 kts | 224° |
| 2026-05-05 16:22 | 27.97915 | 34.38827 | 172 ft | 4 kts | 130° |
| 2026-05-05 16:22 | 27.97913 | 34.38829 | 145 ft | 0 kts | 130° |